Time;durP1;ratioP1;P1;durP2;ratioP2;P2;SDS_P1;SDS_P2;PMS_P1;PMS_P2;Temp;Humidity;BMP_temperature;BMP_pressure;BME280_temperature;BME280_humidity;BME280_pressure;Samples;Min_cycle;Max_cycle;Signal;HPM_P1;HPM_P2
2022/01/19 00:00:13;;;;;;;9.52;8.73;;;3.30;99.90;;;;;;5032963;28;20199;-74
2022/01/19 00:02:40;;;;;;;10.25;9.20;;;3.30;99.90;;;;;;5032912;28;20245;-74
2022/01/19 00:05:09;;;;;;;10.38;9.27;;;3.30;99.90;;;;;;5025255;28;20227;-74
2022/01/19 00:07:38;;;;;;;9.85;8.95;;;3.30;99.90;;;;;;5033683;28;20311;-74
2022/01/19 00:10:09;;;;;;;9.73;8.82;;;3.30;99.90;;;;;;5024121;28;20204;-74
2022/01/19 00:12:37;;;;;;;11.20;9.30;;;3.30;99.90;;;;;;5031642;28;20193;-74
2022/01/19 00:15:06;;;;;;;10.35;9.55;;;3.30;99.90;;;;;;5032297;28;20287;-74
2022/01/19 00:17:33;;;;;;;10.05;9.15;;;3.30;99.90;;;;;;5032751;28;20225;-73
2022/01/19 00:20:00;;;;;;;12.20;10.35;;;3.30;99.90;;;;;;5028843;28;20205;-74
2022/01/19 00:22:27;;;;;;;11.75;9.30;;;3.30;99.90;;;;;;5031124;28;20629;-74
2022/01/19 00:24:55;;;;;;;11.48;10.30;;;3.30;99.90;;;;;;5033026;28;20228;-74
2022/01/19 00:27:22;;;;;;;9.82;9.02;;;3.30;99.90;;;;;;5031912;28;20225;-74
2022/01/19 00:29:49;;;;;;;10.60;9.13;;;3.30;99.90;;;;;;5033010;28;20192;-74
2022/01/19 00:32:16;;;;;;;10.68;9.57;;;3.30;99.90;;;;;;5026191;28;20297;-73
2022/01/19 00:34:43;;;;;;;11.20;10.20;;;3.30;99.90;;;;;;5030749;28;20282;-74
2022/01/19 00:37:10;;;;;;;10.10;9.20;;;3.30;99.90;;;;;;5031390;28;20308;-73
2022/01/19 00:39:37;;;;;;;12.07;10.10;;;3.40;99.90;;;;;;5032399;28;20262;-73
2022/01/19 00:42:06;;;;;;;11.18;9.93;;;3.40;99.90;;;;;;5031644;28;20196;-73
2022/01/19 00:44:33;;;;;;;10.77;9.35;;;3.40;99.90;;;;;;5026551;28;20733;-73
2022/01/19 00:46:59;;;;;;;14.90;10.35;;;3.50;99.90;;;;;;5028291;28;20278;-73
2022/01/19 00:49:26;;;;;;;10.75;9.75;;;3.50;99.90;;;;;;5031474;28;20644;-74
2022/01/19 00:51:53;;;;;;;11.95;10.70;;;3.50;99.90;;;;;;5031738;28;20212;-73
2022/01/19 00:54:20;;;;;;;11.10;10.00;;;3.50;99.90;;;;;;5032980;28;20201;-74
2022/01/19 00:56:47;;;;;;;10.82;9.82;;;3.50;99.90;;;;;;5027942;28;20197;-74
2022/01/19 00:59:16;;;;;;;10.07;9.13;;;3.50;99.90;;;;;;5032596;28;20201;-74
2022/01/19 01:01:43;;;;;;;9.40;8.35;;;3.50;99.90;;;;;;5032611;28;20297;-74
2022/01/19 01:04:10;;;;;;;9.98;9.07;;;3.50;99.90;;;;;;5031179;28;20276;-73
2022/01/19 01:06:37;;;;;;;10.75;9.25;;;3.50;99.90;;;;;;5026884;28;20224;-74
2022/01/19 01:09:04;;;;;;;10.27;9.27;;;3.50;99.90;;;;;;5028355;28;20201;-74
2022/01/19 01:11:35;;;;;;;9.10;8.10;;;3.50;99.90;;;;;;5027435;28;20287;-73
2022/01/19 01:17:10;;;;;;;10.98;9.98;;;3.40;99.90;;;;;;5018522;28;20238;-73
2022/01/19 01:19:37;;;;;;;11.30;10.23;;;3.40;99.90;;;;;;5032424;28;20284;-74
2022/01/19 01:22:05;;;;;;;11.77;10.30;;;3.40;99.90;;;;;;5031337;28;20218;-74
2022/01/19 01:24:32;;;;;;;10.95;9.85;;;3.40;99.90;;;;;;5019968;28;20219;-74
2022/01/19 01:26:59;;;;;;;10.57;9.20;;;3.40;99.90;;;;;;5032554;28;20317;-74
2022/01/19 01:29:26;;;;;;;11.80;10.68;;;3.30;99.90;;;;;;5031902;28;20202;-74
2022/01/19 01:31:54;;;;;;;10.55;9.55;;;3.30;99.90;;;;;;5028108;28;20565;-73
2022/01/19 01:34:21;;;;;;;12.90;10.85;;;3.30;99.90;;;;;;5031855;28;20623;-73
2022/01/19 01:36:48;;;;;;;14.80;10.13;;;3.20;99.90;;;;;;5027378;28;20222;-74
2022/01/19 01:39:15;;;;;;;13.73;11.20;;;3.30;99.90;;;;;;5031101;28;20190;-74
2022/01/19 01:41:42;;;;;;;14.00;10.85;;;3.30;99.90;;;;;;5031419;28;20595;-74
2022/01/19 01:44:09;;;;;;;12.93;11.73;;;3.30;99.90;;;;;;5026070;28;20303;-74
2022/01/19 01:46:44;;;;;;;11.85;10.70;;;3.30;99.90;;;;;;5023669;28;20567;-74
2022/01/19 01:49:18;;;;;;;13.27;11.30;;;3.30;99.90;;;;;;5018122;28;20700;-73
2022/01/19 01:54:30;;;;;;;14.20;11.15;;;3.20;99.90;;;;;;5029905;28;20294;-73
2022/01/19 01:56:57;;;;;;;12.27;10.98;;;3.20;99.90;;;;;;5029545;28;20304;-74
2022/01/19 01:59:24;;;;;;;12.35;11.10;;;3.20;99.90;;;;;;5028831;28;20282;-73
2022/01/19 02:01:51;;;;;;;13.13;11.80;;;3.10;99.90;;;;;;5030854;28;20206;-73
2022/01/19 02:04:23;;;;;;;13.63;12.20;;;3.10;99.90;;;;;;5022168;28;20727;-74
2022/01/19 02:07:15;;;;;;;13.57;11.15;;;3.10;99.90;;;;;;5024809;28;20319;-74
2022/01/19 02:09:46;;;;;;;13.30;11.75;;;3.10;99.90;;;;;;5026737;28;20194;-74
2022/01/19 02:23:19;;;;;;;15.50;12.98;;;2.90;99.90;;;;;;5030865;28;20204;-73
2022/01/19 02:25:49;;;;;;;12.82;11.52;;;2.90;99.90;;;;;;5030504;28;20317;-74
2022/01/19 02:42:06;;;;;;;14.82;12.38;;;2.60;99.90;;;;;;5020415;28;20200;-73
2022/01/19 02:46:36;;;;;;;14.70;13.30;;;2.50;99.90;;;;;;5023459;28;20195;-73
2022/01/19 02:50:11;;;;;;;15.15;12.52;;;2.50;99.90;;;;;;5029550;28;20192;-74
2022/01/19 02:52:39;;;;;;;13.38;12.02;;;2.50;99.90;;;;;;5030976;28;20273;-73
2022/01/19 02:55:07;;;;;;;14.05;12.40;;;2.50;99.90;;;;;;5030203;28;20197;-73
2022/01/19 02:57:36;;;;;;;14.30;12.77;;;2.50;99.90;;;;;;5029971;28;20213;-74
2022/01/19 03:11:05;;;;;;;14.88;12.57;;;1.90;99.90;;;;;;5028598;28;20190;-74
2022/01/19 03:13:32;;;;;;;15.30;13.73;;;1.90;99.90;;;;;;5035064;28;20189;-73
2022/01/19 03:15:59;;;;;;;17.40;13.80;;;1.70;99.90;;;;;;5024672;28;20285;-74
2022/01/19 03:18:26;;;;;;;15.93;14.20;;;1.70;99.90;;;;;;5014828;28;20245;-73
2022/01/19 03:20:53;;;;;;;15.88;14.20;;;1.60;99.90;;;;;;5032752;28;20273;-74
2022/01/19 03:23:21;;;;;;;14.23;12.63;;;1.60;99.90;;;;;;5033297;28;20608;-73
2022/01/19 03:25:49;;;;;;;16.48;14.30;;;1.50;99.90;;;;;;5034177;28;20660;-74
2022/01/19 03:28:16;;;;;;;18.25;15.18;;;1.60;99.90;;;;;;5031882;28;20220;-73
2022/01/19 03:30:43;;;;;;;21.25;15.88;;;1.60;99.90;;;;;;5035125;28;20206;-74
2022/01/19 03:33:11;;;;;;;17.63;15.25;;;1.60;99.90;;;;;;5033613;28;20200;-73
2022/01/19 03:35:39;;;;;;;16.67;14.63;;;1.60;99.90;;;;;;5033790;28;20198;-74
2022/01/19 03:38:06;;;;;;;15.93;14.10;;;1.50;99.90;;;;;;5032999;28;20210;-74
2022/01/19 03:40:35;;;;;;;19.98;14.48;;;1.60;99.90;;;;;;5033626;28;20285;-73
2022/01/19 03:43:03;;;;;;;17.08;13.90;;;1.60;99.90;;;;;;5034006;28;20202;-74
2022/01/19 03:45:32;;;;;;;17.13;13.15;;;1.70;99.90;;;;;;5034774;28;20288;-73
2022/01/19 03:48:15;;;;;;;14.18;12.75;;;1.70;99.90;;;;;;5031088;28;20276;-73
2022/01/19 03:50:42;;;;;;;14.40;11.90;;;1.80;99.90;;;;;;5027558;28;20901;-73
2022/01/19 03:53:09;;;;;;;13.57;12.18;;;1.80;99.90;;;;;;5033239;28;20630;-74
2022/01/19 03:55:38;;;;;;;18.02;12.98;;;1.80;99.90;;;;;;5031048;28;20281;-73
2022/01/19 03:58:05;;;;;;;14.43;12.80;;;1.80;99.90;;;;;;5032764;28;20277;-73
2022/01/19 04:00:34;;;;;;;17.10;13.50;;;1.80;99.90;;;;;;5032999;28;20251;-73
2022/01/19 04:03:02;;;;;;;17.85;13.27;;;1.80;99.90;;;;;;5033794;28;20561;-74
2022/01/19 04:05:40;;;;;;;15.60;13.88;;;1.80;99.90;;;;;;5033180;28;20373;-73
2022/01/19 04:08:07;;;;;;;15.55;14.00;;;1.70;99.90;;;;;;5032487;28;20300;-73
2022/01/19 04:10:34;;;;;;;17.02;13.85;;;1.60;99.90;;;;;;5032157;28;20729;-73
2022/01/19 04:13:11;;;;;;;17.92;14.52;;;1.60;99.90;;;;;;5032066;28;20285;-73
2022/01/19 04:15:38;;;;;;;16.48;14.40;;;1.40;99.90;;;;;;5033649;28;20193;-73
2022/01/19 04:18:05;;;;;;;18.60;14.80;;;1.30;99.90;;;;;;5031488;28;20218;-73
2022/01/19 04:20:40;;;;;;;16.92;15.18;;;1.30;99.90;;;;;;5032080;28;20204;-73
2022/01/19 04:23:07;;;;;;;16.25;13.88;;;1.30;99.90;;;;;;5030462;28;20208;-73
2022/01/19 04:25:35;;;;;;;16.63;14.85;;;1.30;99.90;;;;;;5030848;28;20194;-73
2022/01/19 04:28:07;;;;;;;16.98;14.00;;;1.20;99.90;;;;;;5033128;28;20218;-73
2022/01/19 04:30:34;;;;;;;16.02;14.40;;;1.30;99.90;;;;;;5031296;28;20199;-73
2022/01/19 04:33:07;;;;;;;16.90;14.02;;;1.20;99.90;;;;;;5033299;28;20222;-73
2022/01/19 04:35:44;;;;;;;18.20;14.10;;;1.20;99.90;;;;;;5032085;28;20198;-73
2022/01/19 04:44:14;;;;;;;16.98;15.07;;;1.00;99.90;;;;;;5033270;28;20193;-73
2022/01/19 04:47:12;;;;;;;19.75;14.30;;;0.90;99.90;;;;;;5031914;28;20316;-73
2022/01/19 05:03:45;;;;;;;19.15;15.20;;;0.50;99.90;;;;;;5028802;28;20300;-73
2022/01/19 05:06:15;;;;;;;17.00;15.15;;;0.50;99.90;;;;;;5026312;28;20213;-73
2022/01/19 05:14:13;;;;;;;23.33;15.50;;;0.50;99.90;;;;;;5032200;28;20201;-73
2022/01/19 05:16:42;;;;;;;18.48;15.48;;;0.40;99.90;;;;;;5031979;28;20739;-73
2022/01/19 05:19:09;;;;;;;19.45;15.70;;;0.40;99.90;;;;;;5030812;28;20284;-73
2022/01/19 05:21:36;;;;;;;20.58;15.82;;;0.40;99.90;;;;;;5021276;28;20649;-74
2022/01/19 05:24:06;;;;;;;19.02;15.38;;;0.40;99.90;;;;;;5024410;28;20195;-74
2022/01/19 05:26:35;;;;;;;19.45;15.98;;;0.40;99.90;;;;;;5027482;28;20219;-74
2022/01/19 05:29:02;;;;;;;17.63;14.20;;;0.40;99.90;;;;;;5025414;28;20206;-74
2022/01/19 05:31:29;;;;;;;20.55;16.70;;;0.40;99.90;;;;;;5021082;28;20656;-74
2022/01/19 05:33:57;;;;;;;19.63;16.50;;;0.40;99.90;;;;;;5028750;28;20893;-74
2022/01/19 05:36:24;;;;;;;18.08;15.32;;;0.40;99.90;;;;;;5029945;28;20228;-75
2022/01/19 05:38:52;;;;;;;18.85;16.83;;;0.40;99.90;;;;;;5024457;28;20377;-74
2022/01/19 05:41:20;;;;;;;20.73;15.88;;;0.40;99.90;;;;;;5029265;28;20200;-73
2022/01/19 05:43:47;;;;;;;23.23;15.68;;;0.40;99.90;;;;;;5030312;28;20198;-74
2022/01/19 05:46:14;;;;;;;22.48;16.25;;;0.40;99.90;;;;;;5026927;28;20229;-74
2022/01/19 05:48:41;;;;;;;21.98;17.90;;;0.30;99.90;;;;;;5028007;28;20213;-74
2022/01/19 05:51:09;;;;;;;21.00;16.92;;;0.30;99.90;;;;;;5030185;28;20208;-74
2022/01/19 05:53:36;;;;;;;24.27;17.52;;;0.30;99.90;;;;;;5029243;28;20198;-73
2022/01/19 05:56:03;;;;;;;25.50;19.00;;;0.30;99.90;;;;;;5027475;28;20503;-75
2022/01/19 05:58:30;;;;;;;23.83;16.60;;;0.20;99.90;;;;;;5024614;28;20747;-73
2022/01/19 06:00:57;;;;;;;19.48;16.80;;;0.20;99.90;;;;;;5018326;28;20202;-73
2022/01/19 06:03:25;;;;;;;21.27;17.17;;;0.20;99.90;;;;;;5001390;28;20297;-74
2022/01/19 06:05:52;;;;;;;20.40;17.10;;;0.20;99.90;;;;;;5014934;28;20195;-73
2022/01/19 06:08:40;;;;;;;20.90;16.67;;;0.20;99.90;;;;;;5016643;28;20233;-74
2022/01/19 06:11:07;;;;;;;16.15;14.43;;;0.20;99.90;;;;;;5026104;28;20281;-81
2022/01/19 06:13:35;;;;;;;21.15;16.88;;;0.30;99.90;;;;;;5020235;28;20194;-79
2022/01/19 06:16:02;;;;;;;23.45;18.92;;;0.50;99.90;;;;;;5019092;28;20658;-71
2022/01/19 06:18:29;;;;;;;22.88;17.70;;;0.50;99.90;;;;;;5022459;28;20650;-72
2022/01/19 06:20:56;;;;;;;25.52;18.30;;;0.50;99.90;;;;;;5013920;28;20207;-72
2022/01/19 06:23:25;;;;;;;18.02;15.68;;;0.50;99.90;;;;;;5013276;28;20199;-72
2022/01/19 06:25:53;;;;;;;20.98;16.67;;;0.50;99.90;;;;;;5021401;28;20213;-72
2022/01/19 06:28:20;;;;;;;17.35;15.55;;;0.50;99.90;;;;;;5020381;28;20889;-72
2022/01/19 06:30:47;;;;;;;18.75;15.43;;;0.50;99.90;;;;;;5012144;28;20618;-72
2022/01/19 06:33:14;;;;;;;20.30;17.67;;;0.50;99.90;;;;;;5020297;28;20209;-72
2022/01/19 06:35:41;;;;;;;21.77;16.52;;;0.50;99.90;;;;;;5019153;28;20305;-75
2022/01/19 06:38:08;;;;;;;23.17;17.60;;;0.40;99.90;;;;;;5014351;28;20238;-73
2022/01/19 06:40:36;;;;;;;21.38;17.33;;;0.40;99.90;;;;;;5019060;28;20201;-72
2022/01/19 06:43:04;;;;;;;24.17;19.10;;;0.40;99.90;;;;;;5017551;28;20649;-72
2022/01/19 06:45:31;;;;;;;20.65;16.80;;;0.40;99.90;;;;;;5023548;28;20650;-73
2022/01/19 06:47:58;;;;;;;28.05;18.80;;;0.30;99.90;;;;;;5034535;28;20316;-73
2022/01/19 06:50:26;;;;;;;24.17;17.58;;;0.30;99.90;;;;;;5027815;28;20197;-73
2022/01/19 06:52:54;;;;;;;21.30;19.00;;;0.30;99.90;;;;;;5033404;28;20226;-73
2022/01/19 06:55:22;;;;;;;20.65;17.40;;;0.20;99.90;;;;;;5035550;28;20285;-73
2022/01/19 06:57:50;;;;;;;22.20;18.20;;;0.20;99.90;;;;;;5021713;28;20214;-72
2022/01/19 07:00:17;;;;;;;25.73;18.27;;;0.20;99.90;;;;;;5021844;28;20236;-72
2022/01/19 07:02:44;;;;;;;21.17;17.08;;;0.20;99.90;;;;;;5032221;28;20216;-71
2022/01/19 07:05:11;;;;;;;25.02;17.63;;;0.10;99.90;;;;;;5033885;28;20228;-72
2022/01/19 07:07:38;;;;;;;24.83;17.95;;;0.10;99.90;;;;;;5024029;28;20758;-71
2022/01/19 07:10:07;;;;;;;24.38;18.42;;;0.20;99.90;;;;;;5030840;28;20194;-72
2022/01/19 07:12:35;;;;;;;25.92;18.98;;;0.20;99.90;;;;;;5029375;28;20194;-72
2022/01/19 07:15:03;;;;;;;23.02;18.40;;;0.20;99.90;;;;;;5024829;28;20205;-71
2022/01/19 07:17:30;;;;;;;23.02;18.33;;;0.20;99.90;;;;;;5023066;28;20224;-72
2022/01/19 07:19:57;;;;;;;22.63;18.02;;;0.10;99.90;;;;;;5019582;28;20202;-72
2022/01/19 07:22:24;;;;;;;26.33;18.90;;;0.10;99.90;;;;;;5020478;28;20230;-71
2022/01/19 07:24:51;;;;;;;22.25;17.02;;;0.10;99.90;;;;;;5028662;28;20198;-72
2022/01/19 07:27:18;;;;;;;23.40;18.90;;;0.20;99.90;;;;;;5029018;28;20352;-72
2022/01/19 07:29:45;;;;;;;22.77;19.45;;;0.20;99.90;;;;;;5018544;28;20729;-71
2022/01/19 07:32:14;;;;;;;24.73;19.60;;;0.20;99.90;;;;;;5035463;28;20624;-72
2022/01/19 07:34:41;;;;;;;25.05;18.33;;;0.30;99.90;;;;;;5034793;28;20204;-72
2022/01/19 07:37:08;;;;;;;21.67;19.23;;;0.30;99.90;;;;;;5023796;28;20222;-73
2022/01/19 07:39:35;;;;;;;21.48;17.77;;;0.30;99.90;;;;;;5022230;28;20198;-72
2022/01/19 07:42:02;;;;;;;24.23;19.27;;;0.40;99.90;;;;;;5029754;28;20198;-72
2022/01/19 07:44:29;;;;;;;25.02;18.35;;;0.40;99.90;;;;;;5022125;28;20220;-72
2022/01/19 07:46:56;;;;;;;25.17;18.52;;;0.50;99.90;;;;;;5029415;28;20229;-72
2022/01/19 07:49:25;;;;;;;25.88;19.35;;;0.50;99.90;;;;;;5018953;28;20205;-72
2022/01/19 07:51:52;;;;;;;22.35;18.33;;;0.60;99.90;;;;;;5020896;28;20252;-72
2022/01/19 07:54:19;;;;;;;21.42;18.38;;;0.70;99.90;;;;;;5024023;28;20216;-73
2022/01/19 07:56:47;;;;;;;21.70;17.92;;;0.70;99.90;;;;;;5021751;28;20222;-72
2022/01/19 07:59:14;;;;;;;24.48;17.20;;;0.70;99.90;;;;;;5018391;28;20206;-73
2022/01/19 08:01:42;;;;;;;24.25;19.38;;;0.70;99.90;;;;;;5019572;28;20202;-72
2022/01/19 08:04:09;;;;;;;21.48;18.00;;;0.60;99.90;;;;;;5024030;28;20202;-73
2022/01/19 08:06:37;;;;;;;25.30;18.60;;;0.60;99.90;;;;;;5016737;28;20213;-72
2022/01/19 08:09:04;;;;;;;21.88;17.08;;;0.60;99.90;;;;;;5018228;28;20226;-72
2022/01/19 08:11:31;;;;;;;22.20;17.52;;;0.60;99.90;;;;;;5019730;28;20230;-72
2022/01/19 08:13:58;;;;;;;24.63;19.02;;;0.70;99.90;;;;;;5019965;28;20194;-72
2022/01/19 08:16:26;;;;;;;26.42;17.98;;;0.70;99.90;;;;;;5026188;28;20664;-72
2022/01/19 08:18:53;;;;;;;23.20;17.60;;;0.80;99.90;;;;;;5022641;28;20561;-72
2022/01/19 08:21:20;;;;;;;19.95;17.23;;;0.80;99.90;;;;;;5023130;28;20202;-72
2022/01/19 08:23:48;;;;;;;19.08;16.45;;;0.90;99.90;;;;;;5017604;28;20218;-72
2022/01/19 08:26:16;;;;;;;20.88;17.02;;;1.00;99.90;;;;;;5018840;28;20218;-72
2022/01/19 08:28:44;;;;;;;22.13;18.27;;;1.10;99.90;;;;;;5014289;28;20230;-72
2022/01/19 08:31:11;;;;;;;20.17;16.30;;;1.10;99.90;;;;;;5015096;28;20198;-72
2022/01/19 08:33:38;;;;;;;19.90;17.77;;;1.30;99.90;;;;;;5026236;28;20199;-72
2022/01/19 08:36:05;;;;;;;17.98;16.10;;;1.40;99.90;;;;;;5029038;28;20297;-72
2022/01/19 08:38:33;;;;;;;19.70;16.42;;;1.50;99.90;;;;;;5017746;28;20281;-72
2022/01/19 08:41:01;;;;;;;17.38;15.60;;;1.70;99.90;;;;;;5031713;28;20232;-72
2022/01/19 08:43:28;;;;;;;18.05;15.98;;;2.00;99.90;;;;;;5031526;28;20200;-73
2022/01/19 08:45:56;;;;;;;14.80;13.32;;;2.60;99.90;;;;;;5030909;28;20551;-73
2022/01/19 08:48:24;;;;;;;16.52;12.30;;;3.50;99.90;;;;;;5025487;28;20329;-77
2022/01/19 08:50:51;;;;;;;15.55;13.10;;;4.30;99.90;;;;;;5022440;28;20536;-73
2022/01/19 08:53:18;;;;;;;15.88;12.63;;;5.00;99.90;;;;;;5023799;28;20237;-73
2022/01/19 08:55:45;;;;;;;14.32;12.18;;;5.10;99.90;;;;;;5017156;28;20212;-72
2022/01/19 08:58:13;;;;;;;14.75;12.50;;;5.40;99.90;;;;;;5016427;28;20198;-73
2022/01/19 09:00:42;;;;;;;14.57;12.23;;;6.00;99.90;;;;;;5014993;28;20217;-73
2022/01/19 09:03:09;;;;;;;17.45;13.18;;;6.40;99.90;;;;;;5017262;28;20205;-73
2022/01/19 09:05:36;;;;;;;13.80;12.40;;;6.40;99.90;;;;;;5023237;28;20279;-74
2022/01/19 09:08:03;;;;;;;13.07;11.77;;;6.30;99.90;;;;;;5020434;28;20585;-73
2022/01/19 09:10:30;;;;;;;13.50;11.93;;;6.80;99.90;;;;;;5012851;28;20203;-73
2022/01/19 09:12:57;;;;;;;12.05;10.90;;;7.70;99.90;;;;;;5018587;28;20250;-74
2022/01/19 09:15:27;;;;;;;11.73;10.63;;;8.70;99.90;;;;;;5031096;28;20236;-73
2022/01/19 09:17:54;;;;;;;11.57;10.45;;;9.70;99.90;;;;;;5026569;28;20232;-74
2022/01/19 09:20:21;;;;;;;12.25;11.05;;;10.50;99.90;;;;;;5015105;28;20204;-74
2022/01/19 09:22:49;;;;;;;12.02;10.80;;;11.20;99.90;;;;;;5015141;28;20205;-74
2022/01/19 09:25:16;;;;;;;11.93;10.63;;;11.70;99.90;;;;;;5030116;28;20308;-74
2022/01/19 09:27:43;;;;;;;11.20;10.13;;;11.70;98.00;;;;;;5013704;28;20238;-73
2022/01/19 09:30:14;;;;;;;11.90;10.80;;;11.50;97.20;;;;;;5018717;28;20221;-73
2022/01/19 09:32:44;;;;;;;10.85;9.95;;;10.90;96.70;;;;;;5025207;28;20201;-74
2022/01/19 09:35:11;;;;;;;11.90;10.85;;;10.80;96.90;;;;;;5027085;28;20194;-74
2022/01/19 09:37:40;;;;;;;12.10;10.90;;;10.90;96.80;;;;;;5017887;28;20310;-73
2022/01/19 09:40:09;;;;;;;11.52;10.52;;;11.00;97.20;;;;;;5015588;28;20290;-74
2022/01/19 09:42:36;;;;;;;12.38;11.10;;;11.30;96.30;;;;;;5020008;28;20201;-74
2022/01/19 09:45:04;;;;;;;12.45;11.25;;;11.40;95.60;;;;;;5019200;28;20228;-73
2022/01/19 09:47:31;;;;;;;11.75;10.75;;;11.60;96.40;;;;;;5025204;28;20701;-74
2022/01/19 09:49:59;;;;;;;13.65;10.30;;;12.00;95.00;;;;;;5020219;28;20218;-74
2022/01/19 09:52:26;;;;;;;12.88;11.70;;;12.30;94.70;;;;;;5019998;28;20198;-74
2022/01/19 09:54:55;;;;;;;12.38;11.18;;;12.90;94.80;;;;;;5017255;28;20215;-74
2022/01/19 09:57:22;;;;;;;11.52;10.43;;;13.10;92.50;;;;;;5016214;28;20218;-74
2022/01/19 09:59:49;;;;;;;11.50;10.40;;;13.40;91.80;;;;;;5017010;28;20200;-74
2022/01/19 10:02:16;;;;;;;12.85;11.13;;;13.10;90.80;;;;;;5017654;28;20197;-73
2022/01/19 10:04:47;;;;;;;11.20;10.18;;;13.10;90.90;;;;;;5024083;28;20201;-74
2022/01/19 10:07:18;;;;;;;13.63;11.52;;;12.90;90.70;;;;;;5022157;28;20221;-74
2022/01/19 10:09:54;;;;;;;13.27;11.98;;;12.60;90.10;;;;;;5015514;28;20224;-74
2022/01/19 10:18:09;;;;;;;11.73;10.70;;;13.10;90.40;;;;;;5017255;28;20206;-74
2022/01/19 10:20:36;;;;;;;10.52;9.63;;;13.50;90.60;;;;;;5020196;28;20196;-72
2022/01/19 10:23:05;;;;;;;10.60;9.63;;;14.00;88.50;;;;;;5021806;28;20557;-72
2022/01/19 10:25:49;;;;;;;10.80;9.33;;;14.50;87.80;;;;;;5018220;28;20548;-74
2022/01/19 10:28:16;;;;;;;9.87;8.97;;;14.90;83.40;;;;;;5025724;28;20495;-74
2022/01/19 10:30:43;;;;;;;9.83;9.03;;;14.50;82.80;;;;;;5024051;28;20465;-73
2022/01/19 10:33:17;;;;;;;10.93;9.93;;;14.50;83.30;;;;;;5015191;28;20473;-73
2022/01/19 10:35:48;;;;;;;10.73;9.82;;;14.50;85.00;;;;;;5018415;28;20480;-73
2022/01/19 10:38:20;;;;;;;12.50;10.00;;;14.60;84.70;;;;;;5013661;28;20201;-74
2022/01/19 10:41:09;;;;;;;9.53;8.73;;;14.60;81.50;;;;;;5015562;28;20202;-73
2022/01/19 10:43:39;;;;;;;10.20;9.30;;;14.90;83.00;;;;;;5020658;28;20536;-73
2022/01/19 10:46:27;;;;;;;10.53;9.50;;;15.30;81.40;;;;;;5023920;28;20486;-73
2022/01/19 10:49:03;;;;;;;9.97;8.83;;;16.20;79.20;;;;;;5022093;28;20495;-73
2022/01/19 10:51:33;;;;;;;9.97;8.90;;;16.80;77.50;;;;;;5020438;28;20539;-85
2022/01/19 10:54:12;;;;;;;8.97;8.07;;;17.30;75.30;;;;;;5004402;28;20877;-73
2022/01/19 10:56:41;;;;;;;9.50;8.70;;;17.20;72.90;;;;;;5030519;28;20475;-73
2022/01/19 10:59:11;;;;;;;10.30;9.40;;;17.20;74.10;;;;;;5024660;28;20539;-73
2022/01/19 11:01:41;;;;;;;8.63;7.83;;;17.10;71.60;;;;;;5015277;28;20959;-73
2022/01/19 11:04:29;;;;;;;8.80;8.00;;;17.00;71.60;;;;;;5016596;28;20564;-73
2022/01/19 11:07:01;;;;;;;8.97;8.17;;;16.90;71.80;;;;;;5017564;28;20487;-73
2022/01/19 11:09:30;;;;;;;10.37;9.37;;;16.80;70.70;;;;;;5029674;28;20522;-73
2022/01/19 11:12:02;;;;;;;10.20;9.30;;;16.70;71.20;;;;;;5024448;28;20546;-73
2022/01/19 11:14:29;;;;;;;10.40;9.40;;;16.80;70.60;;;;;;5023993;28;20790;-73
2022/01/19 11:16:56;;;;;;;9.50;8.70;;;16.90;69.70;;;;;;5029308;28;20479;-73
2022/01/19 11:19:24;;;;;;;10.33;9.33;;;16.90;69.70;;;;;;5021412;28;20819;-73
2022/01/19 11:22:03;;;;;;;8.60;7.80;;;17.10;68.50;;;;;;5018752;28;20456;-73
2022/01/19 11:24:40;;;;;;;8.93;8.03;;;17.20;68.00;;;;;;5028827;28;20490;-73
2022/01/19 11:27:08;;;;;;;8.80;7.97;;;16.90;68.00;;;;;;5023260;28;20568;-72
2022/01/19 11:29:38;;;;;;;10.07;8.30;;;16.70;68.80;;;;;;5012382;28;20832;-73
2022/01/19 11:32:16;;;;;;;10.70;8.87;;;16.80;69.30;;;;;;5025328;28;20951;-73
2022/01/19 11:34:47;;;;;;;9.27;8.43;;;16.90;67.90;;;;;;5034040;28;20461;-73
2022/01/19 11:37:15;;;;;;;8.80;7.97;;;17.00;68.00;;;;;;5034198;28;20504;-73
2022/01/19 11:40:09;;;;;;;8.10;7.30;;;17.00;67.00;;;;;;5027330;28;20513;-73
2022/01/19 11:42:36;;;;;;;8.37;7.67;;;16.60;67.20;;;;;;5021209;28;20455;-73
2022/01/19 11:45:06;;;;;;;9.30;8.10;;;16.50;68.50;;;;;;5017099;28;20557;-73
2022/01/19 11:47:33;;;;;;;8.53;7.53;;;16.60;68.60;;;;;;5026516;28;20518;-74
2022/01/19 11:50:02;;;;;;;9.53;8.17;;;16.90;68.70;;;;;;5017529;28;20484;-74
2022/01/19 11:53:08;;;;;;;11.10;9.03;;;17.30;67.70;;;;;;5016652;28;20493;-75
2022/01/19 11:55:38;;;;;;;10.13;9.27;;;17.20;66.40;;;;;;5022003;28;21177;-74
2022/01/19 11:58:16;;;;;;;8.43;7.70;;;17.10;66.90;;;;;;5025786;28;20463;-73
2022/01/19 12:00:45;;;;;;;9.10;8.20;;;16.50;67.00;;;;;;5023378;28;20472;-73
2022/01/19 12:03:25;;;;;;;9.47;8.57;;;16.40;67.70;;;;;;5026690;28;20521;-73
2022/01/19 12:05:54;;;;;;;8.20;7.40;;;16.50;67.70;;;;;;5024606;28;20488;-72
2022/01/19 12:08:31;;;;;;;8.80;8.10;;;16.40;67.60;;;;;;5021413;28;20541;-73
2022/01/19 12:11:02;;;;;;;8.73;7.83;;;16.40;68.10;;;;;;5019333;28;20473;-74
2022/01/19 12:16:29;;;;;;;8.40;7.60;;;16.40;67.60;;;;;;5018674;28;21157;-73
2022/01/19 12:18:57;;;;;;;8.73;7.87;;;16.50;67.40;;;;;;5021818;28;20470;-75
2022/01/19 12:21:40;;;;;;;8.63;7.80;;;16.40;67.40;;;;;;5014706;28;20523;-73
2022/01/19 12:24:19;;;;;;;8.73;8.00;;;16.40;67.20;;;;;;5016928;28;20978;-73
2022/01/19 12:27:23;;;;;;;8.97;8.07;;;16.20;67.40;;;;;;5024018;28;20480;-74
2022/01/19 12:29:52;;;;;;;10.33;9.33;;;15.90;68.00;;;;;;5020965;28;20492;-73
2022/01/19 12:32:46;;;;;;;9.27;8.40;;;15.60;68.30;;;;;;5023920;28;20458;-74
2022/01/19 12:35:31;;;;;;;7.85;7.15;;;14.30;69.80;;;;;;5018328;28;20544;-73
2022/01/19 12:37:59;;;;;;;8.77;7.88;;;14.10;71.30;;;;;;5022741;28;20593;-75
2022/01/19 12:40:48;;;;;;;8.80;8.00;;;14.10;71.40;;;;;;5020675;28;20665;-73
2022/01/19 12:43:35;;;;;;;9.07;8.18;;;13.80;72.00;;;;;;5010335;28;20202;-75
2022/01/19 12:46:04;;;;;;;9.23;8.32;;;13.30;73.20;;;;;;5016387;28;20320;-74
2022/01/19 12:48:47;;;;;;;8.70;7.90;;;12.50;73.70;;;;;;5023851;28;20225;-76
2022/01/19 12:51:40;;;;;;;9.18;8.38;;;11.60;77.00;;;;;;5009260;28;20645;-75
2022/01/19 12:54:12;;;;;;;8.55;7.72;;;11.10;78.20;;;;;;5020006;28;20211;-75
2022/01/19 12:56:39;;;;;;;8.38;7.57;;;10.20;81.80;;;;;;5023099;28;20225;-75
2022/01/19 12:59:09;;;;;;;10.88;8.60;;;9.70;84.60;;;;;;5020217;28;20206;-75
2022/01/19 13:01:36;;;;;;;11.10;8.23;;;9.20;86.90;;;;;;5020983;28;20532;-74
2022/01/19 13:04:03;;;;;;;8.60;7.70;;;8.60;88.10;;;;;;5013058;28;20260;-74
2022/01/19 13:06:32;;;;;;;7.63;6.80;;;8.40;89.80;;;;;;5019039;28;20223;-74
2022/01/19 13:09:10;;;;;;;7.57;6.85;;;8.40;90.70;;;;;;5021658;28;20230;-75
2022/01/19 13:11:40;;;;;;;8.60;7.38;;;8.60;90.70;;;;;;5024024;28;20286;-75
2022/01/19 13:14:12;;;;;;;6.78;6.18;;;8.40;91.50;;;;;;5029197;28;20778;-74
2022/01/19 13:16:42;;;;;;;8.32;7.43;;;8.80;91.40;;;;;;5020566;28;20241;-72
2022/01/19 13:19:13;;;;;;;6.80;5.90;;;8.70;91.50;;;;;;5027841;28;20207;-72
2022/01/19 13:21:42;;;;;;;7.20;6.07;;;8.50;91.60;;;;;;5021212;28;20693;-73
2022/01/19 13:24:13;;;;;;;7.72;7.03;;;8.30;91.60;;;;;;5027216;28;20202;-73
2022/01/19 13:26:59;;;;;;;7.30;6.22;;;8.10;91.80;;;;;;5020995;28;20617;-74
2022/01/19 13:29:31;;;;;;;6.20;5.60;;;7.80;92.70;;;;;;5017822;28;20257;-72
2022/01/19 13:32:02;;;;;;;7.35;6.53;;;7.60;93.00;;;;;;5018470;28;20201;-73
2022/01/19 13:34:31;;;;;;;7.55;6.80;;;7.60;93.40;;;;;;5024290;28;20221;-74
2022/01/19 13:37:00;;;;;;;5.93;5.28;;;7.80;93.90;;;;;;5018439;28;20301;-73
2022/01/19 13:39:30;;;;;;;5.80;4.80;;;8.10;93.00;;;;;;5014483;28;20218;-73
2022/01/19 13:41:58;;;;;;;5.80;5.30;;;8.40;92.00;;;;;;5018772;28;20203;-74
2022/01/19 13:44:33;;;;;;;5.50;4.70;;;8.50;92.00;;;;;;5022445;28;20360;-73
2022/01/19 13:47:10;;;;;;;5.75;5.20;;;8.30;91.80;;;;;;5019128;28;20218;-74
2022/01/19 13:49:39;;;;;;;5.70;5.10;;;8.30;91.50;;;;;;5016565;28;20225;-70
2022/01/19 13:52:09;;;;;;;4.95;4.45;;;8.40;92.40;;;;;;5019145;28;20210;-72
2022/01/19 13:54:41;;;;;;;6.25;4.93;;;8.20;91.90;;;;;;5018462;28;20291;-74
2022/01/19 13:57:08;;;;;;;5.43;4.93;;;8.00;92.10;;;;;;5019728;28;20218;-72
2022/01/19 13:59:36;;;;;;;5.13;4.63;;;7.80;92.40;;;;;;5019493;28;20206;-73
2022/01/19 14:02:14;;;;;;;5.88;5.30;;;7.40;92.60;;;;;;5023328;28;20641;-73
2022/01/19 14:04:51;;;;;;;5.30;4.80;;;7.30;93.00;;;;;;5017720;28;20300;-73
2022/01/19 14:07:18;;;;;;;5.88;5.28;;;7.10;93.60;;;;;;5019292;28;20208;-72
2022/01/19 14:09:47;;;;;;;5.63;5.00;;;7.00;94.20;;;;;;5017018;28;20316;-72
2022/01/19 14:12:16;;;;;;;5.90;5.10;;;6.80;94.50;;;;;;5019207;28;20281;-72